Flight Track Log - Related Links

Times and Time Zones

All times are in EDT time to prevent confusion due to time zone crossing. See the EJA122 flight status page for this flight to view local times or setup timezone preferences in your user account.

Time Position Orientation Groundspeed Altitude Reporting Facility
EDT Latitude Longitude Course Direction KTS MPH feet Rate Location/Type
Thu 08:59:35 PM 38.4461 -122.8611 207° Southwest 174 200 4,300  Level Oakland Center
Thu 09:00:36 PM 38.3792 -122.9047 207° Southwest 254 292 7,200 2,634 Climbing Oakland Center
Thu 09:01:38 PM 38.3114 -122.9511 208° Southwest 274 315 9,700 2,439 Climbing Oakland Center
Thu 09:02:00 PM 38.0770 -122.8615 201° Southwest  Level FlightAware Approximate
Thu 09:02:39 PM 38.2186 -123.0164 209° Southwest 312 359 12,200  Level Oakland Center
Thu 09:03:00 PM 38.0107 -122.8387 158° South  Level FlightAware Approximate
Thu 09:03:41 PM 38.1289 -123.0572 200° South 346 398 14,800  Level Oakland Center
Thu 09:04:42 PM 38.0389 -123.0828 193° South 337 388 17,300 2,066 Climbing Oakland Center
Thu 09:05:43 PM 37.9692 -123.0108 141° Southeast 333 383 19,000 829 Climbing Oakland Center
Thu 09:06:45 PM 37.8853 -122.9383 146° Southeast 375 432 19,000  Level Oakland Center
Thu 09:07:46 PM 37.7897 -122.8661 149° Southeast 402 463 19,000 -49 Level Oakland Center
Thu 09:08:48 PM 37.6697 -122.7764 149° Southeast 422 486 18,900 -732 Descending Oakland Center
Thu 09:09:49 PM 37.5725 -122.7050 150° Southeast 416 479 17,500 -1,426 Descending Oakland Center
Thu 09:10:50 PM 37.4814 -122.6381 150° Southeast 400 460 16,000 -1,463 Descending Oakland Center
Thu 09:11:52 PM 37.3911 -122.5725 150° Southeast 387 445 14,500 -1,463 Descending Oakland Center
Thu 09:12:53 PM 37.2886 -122.5294 162° South 389 448 13,000 -1,220 Descending Oakland Center
Thu 09:13:55 PM 37.1922 -122.4889 161° South 374 430 12,000 -1,366 Descending Oakland Center
Thu 09:14:56 PM 37.1011 -122.4497 161° South 358 412 10,200 -1,377 Descending Oakland Center
Thu 09:15:57 PM 37.0369 -122.3864 142° Southeast 317 365 9,200 -1,366 Descending Oakland Center
Thu 09:16:59 PM 36.9675 -122.2994 135° Southeast 296 341 7,400 -1,561 Descending Oakland Center
Thu 09:18:00 PM 36.9067 -122.2283 137° Southeast 298 343 6,000 -689 Descending Oakland Center
Thu 09:19:01 PM 36.8489 -122.1603 137° Southeast 294 338 6,000  Level Oakland Center
Thu 09:19:37 PM 36.8167 -122.1167 133° Southeast 289 333 6,000  Level Northern Cal TRACON
Thu 09:20:37 PM 36.7500 -122.0500 141° Southeast 287 330 6,000  Level Northern Cal TRACON
Thu 09:21:31 PM 36.7167 -121.9667 116° Southeast 281 323 6,000  Level Northern Cal TRACON
Thu 09:22:31 PM 36.6833 -121.8833 116° Southeast 280 322 6,000  Level Northern Cal TRACON
Thu 09:23:31 PM 36.6333 -121.8000 127° Southeast 288 331 6,000  Level Northern Cal TRACON
Thu 09:24:31 PM 36.6167 -121.7167 104° East 281 323 6,000  Level Northern Cal TRACON
Thu 09:25:37 PM 36.5833 -121.6167 113° Southeast 277 319 6,000  Level Northern Cal TRACON
Thu 09:26:10 PM 36.5689 -121.5853 120° Southeast 278 320 6,000  Level Oakland Center
Thu 09:27:12 PM 36.5358 -121.4789 111° Southeast 279 321 6,000  Level Oakland Center
Thu 09:28:13 PM 36.4706 -121.5139 203° Southwest 292 336 6,000 -443 Level Oakland Center
Thu 09:29:14 PM 36.4967 -121.6044 290° West 284 327 5,100 -857 Descending Oakland Center
Thu 09:29:37 PM 36.5167 -121.6333 311° West 267 307 4,800 -1,373 Descending Northern Cal TRACON
Thu 09:30:37 PM 36.5333 -121.7167 284° West 226 260 3,200 -1,300 Descending Northern Cal TRACON
Thu 09:31:37 PM 36.5667 -121.7667 310° West 148 170 2,200 -1,000 Descending Northern Cal TRACON
Thu 09:32:37 PM 36.5667 -121.8000 270° West 124 143 1,200 -1,000 Descending Northern Cal TRACON

Login

Don't have an account? Register now (free) for customized features, flight alerts, and more!